Time;durP1;ratioP1;P1;durP2;ratioP2;P2;SDS_P1;SDS_P2;PMS_P1;PMS_P2;Temp;Humidity;BMP_temperature;BMP_pressure;BME280_temperature;BME280_humidity;BME280_pressure;Samples;Min_cycle;Max_cycle;Signal;HPM_P1;HPM_P2
2020/12/16 00:00:15;;;;;;;8.27;5.75;;;;;;;;;;5024944;28;20178;-77
2020/12/16 00:02:41;;;;;;;10.57;6.05;;;;;;;;;;5042717;28;20182;-77
2020/12/16 00:05:08;;;;;;;9.00;5.88;;;;;;;;;;5033040;28;20196;-77
2020/12/16 00:07:34;;;;;;;11.60;5.80;;;;;;;;;;5039518;28;20198;-77
2020/12/16 00:10:00;;;;;;;9.35;5.25;;;;;;;;;;5027042;28;20178;-77
2020/12/16 00:12:29;;;;;;;6.38;5.05;;;;;;;;;;5024860;28;20213;-78
2020/12/16 00:14:55;;;;;;;16.00;6.38;;;;;;;;;;5044739;28;20174;-78
2020/12/16 00:17:21;;;;;;;7.10;5.55;;;;;;;;;;5020538;28;20178;-77
2020/12/16 00:19:47;;;;;;;7.20;4.93;;;;;;;;;;5038639;28;20197;-77
2020/12/16 00:22:13;;;;;;;6.90;4.90;;;;;;;;;;5030865;28;20181;-77
2020/12/16 00:24:39;;;;;;;9.30;5.57;;;;;;;;;;5040393;28;20492;-77
2020/12/16 00:27:05;;;;;;;7.28;5.50;;;;;;;;;;5043428;28;20194;-78
2020/12/16 00:29:31;;;;;;;7.43;5.28;;;;;;;;;;5021652;28;20206;-77
2020/12/16 00:31:57;;;;;;;9.00;5.28;;;;;;;;;;5023013;28;20186;-77
2020/12/16 00:34:23;;;;;;;10.95;5.60;;;;;;;;;;5038227;28;20212;-78
2020/12/16 00:36:49;;;;;;;10.18;6.45;;;;;;;;;;5044294;28;20196;-77
2020/12/16 00:39:15;;;;;;;7.38;5.68;;;;;;;;;;5038001;28;20185;-78
2020/12/16 00:41:41;;;;;;;8.35;5.60;;;;;;;;;;5038817;28;20189;-78
2020/12/16 00:44:07;;;;;;;7.55;5.53;;;;;;;;;;5042763;28;20194;-77
2020/12/16 00:46:33;;;;;;;10.95;6.28;;;;;;;;;;5025374;28;20189;-77
2020/12/16 00:48:59;;;;;;;7.47;4.90;;;;;;;;;;5025901;28;20727;-77
2020/12/16 00:51:25;;;;;;;7.00;5.40;;;;;;;;;;5025852;28;20169;-77
2020/12/16 00:53:51;;;;;;;7.03;5.97;;;;;;;;;;5021033;28;20186;-78
2020/12/16 00:56:17;;;;;;;6.70;4.82;;;;;;;;;;5041161;28;20185;-78
2020/12/16 00:58:43;;;;;;;9.50;6.70;;;;;;;;;;5022667;28;20182;-78
2020/12/16 01:01:09;;;;;;;8.98;5.45;;;;;;;;;;5043258;28;20464;-78
2020/12/16 01:03:34;;;;;;;7.55;4.90;;;;;;;;;;5036035;28;20177;-77
2020/12/16 01:06:00;;;;;;;8.03;5.60;;;;;;;;;;5028244;28;20269;-78
2020/12/16 01:08:26;;;;;;;8.13;5.82;;;;;;;;;;5039693;28;20473;-78
2020/12/16 01:10:53;;;;;;;7.03;5.18;;;;;;;;;;5040019;28;20177;-77
2020/12/16 01:13:18;;;;;;;8.73;5.20;;;;;;;;;;5038123;28;20221;-78
2020/12/16 01:15:44;;;;;;;8.90;4.87;;;;;;;;;;5044553;28;20182;-77
2020/12/16 01:18:10;;;;;;;10.98;6.03;;;;;;;;;;5037805;28;20472;-78
2020/12/16 01:20:37;;;;;;;10.45;6.00;;;;;;;;;;5043247;28;20216;-78
2020/12/16 01:23:03;;;;;;;8.52;4.88;;;;;;;;;;5012358;28;20197;-77
2020/12/16 01:25:29;;;;;;;9.32;4.70;;;;;;;;;;5023849;28;20185;-78
2020/12/16 01:27:55;;;;;;;10.15;5.22;;;;;;;;;;5020627;28;20213;-78
2020/12/16 01:30:21;;;;;;;6.20;5.00;;;;;;;;;;5043802;28;20181;-77
2020/12/16 01:32:50;;;;;;;7.25;5.50;;;;;;;;;;5026299;28;20209;-78
2020/12/16 01:35:16;;;;;;;14.05;6.30;;;;;;;;;;5022812;28;20280;-78
2020/12/16 01:37:42;;;;;;;7.63;5.27;;;;;;;;;;5026868;28;20209;-78
2020/12/16 01:40:09;;;;;;;8.33;5.50;;;;;;;;;;5043495;28;20933;-77
2020/12/16 01:42:35;;;;;;;11.02;5.70;;;;;;;;;;5021042;28;20461;-78
2020/12/16 01:45:09;;;;;;;9.40;6.50;;;;;;;;;;5040035;28;20226;-77
2020/12/16 01:47:35;;;;;;;7.45;4.95;;;;;;;;;;5024846;28;20212;-78
2020/12/16 01:50:02;;;;;;;5.55;4.45;;;;;;;;;;5042687;28;20213;-77
2020/12/16 01:52:28;;;;;;;9.65;5.60;;;;;;;;;;5035178;28;20193;-78
2020/12/16 01:54:55;;;;;;;11.27;5.50;;;;;;;;;;5042929;28;20182;-78
2020/12/16 01:57:23;;;;;;;8.13;5.97;;;;;;;;;;5035413;28;20576;-77
2020/12/16 01:59:50;;;;;;;8.52;4.90;;;;;;;;;;5019727;28;20193;-78
2020/12/16 02:02:17;;;;;;;6.90;5.05;;;;;;;;;;5024935;28;20220;-78
2020/12/16 02:04:44;;;;;;;6.45;5.15;;;;;;;;;;5040711;28;20189;-78
2020/12/16 02:07:11;;;;;;;6.55;4.90;;;;;;;;;;5040895;28;20185;-78
2020/12/16 02:09:39;;;;;;;7.85;5.95;;;;;;;;;;5038245;28;20181;-77
2020/12/16 02:12:26;;;;;;;7.75;6.82;;;;;;;;;;5040495;28;20253;-78
2020/12/16 02:14:52;;;;;;;12.07;5.20;;;;;;;;;;5042591;28;20181;-78
2020/12/16 02:17:18;;;;;;;6.45;4.35;;;;;;;;;;5039596;28;20278;-78
2020/12/16 02:19:47;;;;;;;6.00;4.45;;;;;;;;;;5021908;28;20189;-78
2020/12/16 02:22:13;;;;;;;6.95;4.95;;;;;;;;;;5037473;28;20197;-78
2020/12/16 02:24:40;;;;;;;6.05;4.22;;;;;;;;;;5038327;28;20186;-77
2020/12/16 02:27:06;;;;;;;6.30;4.28;;;;;;;;;;5036477;28;20197;-78
2020/12/16 02:29:32;;;;;;;7.60;4.28;;;;;;;;;;5037428;28;20206;-78
2020/12/16 02:31:58;;;;;;;9.15;5.32;;;;;;;;;;5041712;28;20198;-78
2020/12/16 02:34:24;;;;;;;5.72;4.60;;;;;;;;;;5041265;28;20181;-79
2020/12/16 02:36:50;;;;;;;5.88;4.75;;;;;;;;;;5021492;28;20178;-78
2020/12/16 02:39:16;;;;;;;7.78;4.82;;;;;;;;;;5024344;28;20181;-78
2020/12/16 02:41:42;;;;;;;7.55;4.70;;;;;;;;;;5036204;28;20603;-78
2020/12/16 02:44:08;;;;;;;6.20;4.70;;;;;;;;;;5040997;28;20213;-78
2020/12/16 02:46:34;;;;;;;6.10;4.37;;;;;;;;;;5021290;28;20678;-78
2020/12/16 02:49:02;;;;;;;5.63;3.80;;;;;;;;;;5042422;28;20520;-78
2020/12/16 02:51:28;;;;;;;5.47;3.92;;;;;;;;;;5019702;28;20428;-78
2020/12/16 02:53:54;;;;;;;8.65;4.75;;;;;;;;;;5018571;28;20193;-78
2020/12/16 02:56:20;;;;;;;7.43;4.90;;;;;;;;;;5017042;28;20179;-78
2020/12/16 02:58:46;;;;;;;5.35;4.45;;;;;;;;;;5037942;28;20467;-78
2020/12/16 03:01:12;;;;;;;5.78;4.38;;;;;;;;;;5035650;28;20189;-78
2020/12/16 03:03:38;;;;;;;5.20;4.38;;;;;;;;;;5039616;28;20201;-77
2020/12/16 03:06:05;;;;;;;6.88;4.50;;;;;;;;;;5040671;28;20190;-77
2020/12/16 03:08:31;;;;;;;6.03;4.03;;;;;;;;;;5027067;28;20201;-77
2020/12/16 03:10:57;;;;;;;5.05;4.22;;;;;;;;;;5040489;28;20193;-78
2020/12/16 03:13:23;;;;;;;5.87;3.90;;;;;;;;;;5045861;28;20217;-77
2020/12/16 03:15:48;;;;;;;10.70;3.35;;;;;;;;;;5045336;28;20412;-78
2020/12/16 03:18:14;;;;;;;4.77;3.73;;;;;;;;;;5022599;28;20306;-77
2020/12/16 03:20:40;;;;;;;4.87;3.57;;;;;;;;;;5044731;28;20448;-77
2020/12/16 03:23:06;;;;;;;5.40;4.20;;;;;;;;;;5026051;28;20452;-77
2020/12/16 03:25:32;;;;;;;4.77;3.93;;;;;;;;;;5027425;28;20268;-78
2020/12/16 03:27:58;;;;;;;6.88;3.90;;;;;;;;;;5024124;28;20464;-78
2020/12/16 03:30:24;;;;;;;4.22;3.22;;;;;;;;;;5029004;28;20177;-77
2020/12/16 03:32:50;;;;;;;5.22;3.70;;;;;;;;;;5021801;28;20175;-78
2020/12/16 03:35:16;;;;;;;7.00;4.80;;;;;;;;;;5023036;28;20213;-78
2020/12/16 03:37:42;;;;;;;6.78;3.97;;;;;;;;;;5024688;28;20437;-78
2020/12/16 03:40:08;;;;;;;4.10;3.60;;;;;;;;;;5045687;28;20173;-78
2020/12/16 03:42:35;;;;;;;6.28;3.65;;;;;;;;;;5035741;28;20182;-78
2020/12/16 03:45:01;;;;;;;5.85;3.67;;;;;;;;;;5039424;28;20185;-77
2020/12/16 03:47:27;;;;;;;6.15;4.13;;;;;;;;;;5026776;28;20267;-78
2020/12/16 03:49:53;;;;;;;4.70;4.03;;;;;;;;;;5039533;28;20186;-77
2020/12/16 03:52:19;;;;;;;4.70;3.80;;;;;;;;;;5038368;28;20979;-78
2020/12/16 03:54:45;;;;;;;5.47;3.60;;;;;;;;;;5045129;28;20177;-77
2020/12/16 03:57:13;;;;;;;5.67;4.10;;;;;;;;;;5038235;28;20205;-78
2020/12/16 03:59:39;;;;;;;7.45;4.47;;;;;;;;;;5021833;28;20463;-78
2020/12/16 04:02:05;;;;;;;8.65;4.88;;;;;;;;;;5025676;28;20588;-78
2020/12/16 04:04:31;;;;;;;6.53;4.22;;;;;;;;;;5041063;28;20209;-78
2020/12/16 04:06:57;;;;;;;5.63;4.30;;;;;;;;;;5041240;28;20277;-78
2020/12/16 04:09:25;;;;;;;7.45;3.95;;;;;;;;;;5045164;28;20470;-78
2020/12/16 04:11:52;;;;;;;5.22;4.20;;;;;;;;;;5034304;28;20186;-78
2020/12/16 04:14:18;;;;;;;6.13;4.03;;;;;;;;;;5023567;28;20225;-77
2020/12/16 04:16:44;;;;;;;6.55;3.90;;;;;;;;;;5042410;28;20208;-77
2020/12/16 04:19:10;;;;;;;6.63;3.40;;;;;;;;;;5037908;28;20450;-78
2020/12/16 04:21:36;;;;;;;6.00;4.00;;;;;;;;;;5046097;28;20451;-77
2020/12/16 04:24:02;;;;;;;7.33;3.80;;;;;;;;;;5025901;28;20186;-77
2020/12/16 04:26:28;;;;;;;5.32;3.80;;;;;;;;;;5025722;28;20468;-78
2020/12/16 04:28:54;;;;;;;5.70;4.25;;;;;;;;;;5039534;28;20206;-77
2020/12/16 04:31:20;;;;;;;8.15;3.67;;;;;;;;;;5044251;28;20178;-78
2020/12/16 04:33:46;;;;;;;6.30;4.00;;;;;;;;;;5039531;28;20194;-77
2020/12/16 04:36:12;;;;;;;4.22;3.45;;;;;;;;;;5020916;28;20177;-77
2020/12/16 04:38:38;;;;;;;4.32;3.88;;;;;;;;;;5026229;28;20244;-78
2020/12/16 04:41:08;;;;;;;5.07;3.30;;;;;;;;;;5025611;28;20189;-78
2020/12/16 04:43:39;;;;;;;6.97;3.40;;;;;;;;;;5036834;28;20266;-77
2020/12/16 04:46:06;;;;;;;4.30;2.92;;;;;;;;;;5026122;28;20212;-78
2020/12/16 04:48:32;;;;;;;5.13;3.95;;;;;;;;;;5040076;28;20201;-77
2020/12/16 04:51:01;;;;;;;4.00;3.60;;;;;;;;;;5026348;28;20186;-77
2020/12/16 04:53:28;;;;;;;3.78;3.30;;;;;;;;;;5039921;28;20182;-77
2020/12/16 04:55:54;;;;;;;7.70;4.18;;;;;;;;;;5042893;28;20253;-77
2020/12/16 04:58:20;;;;;;;6.55;4.45;;;;;;;;;;5037215;28;20762;-77
2020/12/16 05:00:46;;;;;;;9.95;4.90;;;;;;;;;;5031744;28;20178;-77
2020/12/16 05:03:12;;;;;;;6.47;4.20;;;;;;;;;;5032753;28;20261;-77
2020/12/16 05:05:38;;;;;;;5.60;4.20;;;;;;;;;;5023752;28;20197;-77
2020/12/16 05:08:10;;;;;;;6.30;4.95;;;;;;;;;;5025152;28;20252;-77
2020/12/16 05:10:37;;;;;;;6.40;4.65;;;;;;;;;;5042213;28;20259;-78
2020/12/16 05:13:08;;;;;;;5.32;4.05;;;;;;;;;;5037454;28;20232;-78
2020/12/16 05:15:34;;;;;;;5.15;4.50;;;;;;;;;;5038899;28;20646;-77
2020/12/16 05:18:19;;;;;;;7.53;4.53;;;;;;;;;;5036204;28;20208;-78
2020/12/16 05:20:48;;;;;;;8.23;3.90;;;;;;;;;;5042962;28;20244;-78
2020/12/16 05:23:14;;;;;;;7.65;5.18;;;;;;;;;;5038516;28;20261;-78
2020/12/16 05:25:56;;;;;;;6.60;5.20;;;;;;;;;;5038003;28;20183;-77
2020/12/16 05:28:25;;;;;;;8.43;5.28;;;;;;;;;;5037134;28;20217;-77
2020/12/16 05:30:54;;;;;;;10.00;5.45;;;;;;;;;;5022242;28;20170;-78
2020/12/16 05:33:20;;;;;;;6.63;4.55;;;;;;;;;;5037715;28;20178;-77
2020/12/16 05:35:50;;;;;;;6.90;4.88;;;;;;;;;;5025239;28;20189;-78
2020/12/16 05:38:16;;;;;;;7.75;5.20;;;;;;;;;;5023012;28;20217;-77
2020/12/16 05:40:42;;;;;;;7.60;5.80;;;;;;;;;;5040130;28;20209;-78
2020/12/16 05:43:08;;;;;;;7.03;5.20;;;;;;;;;;5036301;28;20454;-78
2020/12/16 05:45:39;;;;;;;9.02;5.00;;;;;;;;;;5036613;28;20311;-77
2020/12/16 05:48:09;;;;;;;9.32;4.90;;;;;;;;;;5026101;28;20205;-78
2020/12/16 05:50:47;;;;;;;8.48;5.07;;;;;;;;;;5027291;28;20186;-78
2020/12/16 05:53:14;;;;;;;8.65;4.72;;;;;;;;;;5014626;28;20194;-78
2020/12/16 05:55:41;;;;;;;10.18;4.63;;;;;;;;;;5039413;28;20173;-78
2020/12/16 05:58:08;;;;;;;6.35;4.38;;;;;;;;;;5026664;28;20253;-78
2020/12/16 06:00:57;;;;;;;12.15;4.82;;;;;;;;;;5023509;28;20170;-78
2020/12/16 06:03:28;;;;;;;7.00;4.43;;;;;;;;;;5028162;28;20186;-77
2020/12/16 06:05:55;;;;;;;6.32;3.30;;;;;;;;;;5024762;28;20200;-78
2020/12/16 06:08:22;;;;;;;8.50;5.30;;;;;;;;;;5040980;28;20247;-78
2020/12/16 06:10:49;;;;;;;5.72;3.72;;;;;;;;;;5041884;28;20191;-78
2020/12/16 06:13:16;;;;;;;11.15;4.60;;;;;;;;;;5040513;28;20747;-78
2020/12/16 06:15:53;;;;;;;9.18;4.53;;;;;;;;;;5041749;28;20174;-77
2020/12/16 06:18:20;;;;;;;6.47;4.10;;;;;;;;;;5019314;28;20550;-77
2020/12/16 06:20:46;;;;;;;5.85;4.57;;;;;;;;;;5020808;28;20198;-77
2020/12/16 06:23:21;;;;;;;7.80;4.18;;;;;;;;;;5022243;28;20261;-77
2020/12/16 06:25:49;;;;;;;7.93;5.10;;;;;;;;;;5024362;28;20199;-78
2020/12/16 06:28:15;;;;;;;8.80;4.95;;;;;;;;;;5035361;28;20656;-77
2020/12/16 06:30:47;;;;;;;6.03;3.78;;;;;;;;;;5041190;28;20174;-78
2020/12/16 06:33:12;;;;;;;6.95;4.80;;;;;;;;;;5036221;28;20193;-77
2020/12/16 06:35:40;;;;;;;7.50;4.10;;;;;;;;;;5041459;28;20178;-77
2020/12/16 06:38:20;;;;;;;7.40;4.53;;;;;;;;;;5024229;28;20842;-78
2020/12/16 06:40:47;;;;;;;7.97;4.72;;;;;;;;;;5025725;28;20229;-77
2020/12/16 06:43:34;;;;;;;7.93;5.28;;;;;;;;;;5046456;28;20178;-77
2020/12/16 06:46:01;;;;;;;7.63;4.55;;;;;;;;;;5043484;28;20277;-77
2020/12/16 06:48:37;;;;;;;6.90;4.85;;;;;;;;;;5044536;28;20228;-78
2020/12/16 06:51:19;;;;;;;7.40;5.13;;;;;;;;;;5039498;28;20271;-77
2020/12/16 06:53:46;;;;;;;9.18;5.88;;;;;;;;;;5046386;28;20178;-77
2020/12/16 06:56:12;;;;;;;11.15;6.07;;;;;;;;;;5046719;28;20181;-77
2020/12/16 06:58:38;;;;;;;9.65;6.15;;;;;;;;;;5045906;28;20200;-77
2020/12/16 07:01:11;;;;;;;7.88;5.75;;;;;;;;;;5026519;28;20174;-78
2020/12/16 07:03:37;;;;;;;7.63;4.88;;;;;;;;;;5040037;28;20553;-78
2020/12/16 07:06:03;;;;;;;7.27;4.47;;;;;;;;;;5028352;28;20178;-77
2020/12/16 07:08:29;;;;;;;8.55;4.90;;;;;;;;;;5024137;28;20467;-77
2020/12/16 07:10:55;;;;;;;10.30;5.45;;;;;;;;;;5025041;28;20193;-78
2020/12/16 07:13:24;;;;;;;9.10;5.28;;;;;;;;;;5039231;28;20222;-78
2020/12/16 07:15:58;;;;;;;8.50;5.55;;;;;;;;;;5047039;28;20210;-78
2020/12/16 07:18:40;;;;;;;8.10;4.93;;;;;;;;;;5019254;28;20485;-78
2020/12/16 07:21:16;;;;;;;11.40;5.78;;;;;;;;;;5045429;28;20192;-77
2020/12/16 07:23:43;;;;;;;7.82;5.50;;;;;;;;;;5039636;28;20178;-77
2020/12/16 07:26:09;;;;;;;11.68;6.25;;;;;;;;;;5052533;28;20229;-77
2020/12/16 07:28:38;;;;;;;7.28;5.38;;;;;;;;;;5041402;28;20376;-78
2020/12/16 07:31:05;;;;;;;7.30;5.28;;;;;;;;;;5039931;28;20188;-77
2020/12/16 07:33:31;;;;;;;8.48;6.32;;;;;;;;;;5039915;28;20177;-77
2020/12/16 07:35:59;;;;;;;6.53;5.38;;;;;;;;;;5022767;28;21160;-77
2020/12/16 07:38:25;;;;;;;8.57;5.75;;;;;;;;;;5026511;28;20185;-77
2020/12/16 07:40:51;;;;;;;15.50;13.90;;;;;;;;;;5045816;28;20244;-78
2020/12/16 07:43:19;;;;;;;8.50;5.90;;;;;;;;;;5037745;28;20213;-77
2020/12/16 07:45:46;;;;;;;9.48;6.45;;;;;;;;;;5046318;28;21416;-77
2020/12/16 07:48:18;;;;;;;9.75;5.93;;;;;;;;;;5037954;28;20221;-77
2020/12/16 07:50:44;;;;;;;9.27;6.80;;;;;;;;;;5040173;28;20182;-77
2020/12/16 07:53:10;;;;;;;14.00;7.15;;;;;;;;;;5027625;28;20185;-77
2020/12/16 07:55:40;;;;;;;11.40;6.70;;;;;;;;;;5043539;28;20178;-78
2020/12/16 07:58:09;;;;;;;8.77;6.15;;;;;;;;;;5034342;28;20180;-78
2020/12/16 08:00:35;;;;;;;8.82;5.97;;;;;;;;;;5023414;28;20746;-78
2020/12/16 08:03:02;;;;;;;8.52;6.18;;;;;;;;;;5025518;28;21361;-78
2020/12/16 08:05:28;;;;;;;8.82;6.05;;;;;;;;;;5035011;28;20277;-78
2020/12/16 08:08:00;;;;;;;11.20;6.70;;;;;;;;;;5024061;28;20209;-78
2020/12/16 08:10:26;;;;;;;9.30;6.88;;;;;;;;;;5027397;28;20177;-77
2020/12/16 08:12:54;;;;;;;9.60;7.00;;;;;;;;;;5026189;28;20225;-78
2020/12/16 08:15:20;;;;;;;10.27;7.43;;;;;;;;;;5024437;28;20999;-77
2020/12/16 08:17:46;;;;;;;10.10;6.53;;;;;;;;;;5022941;28;20650;-77
2020/12/16 08:20:12;;;;;;;9.65;6.38;;;;;;;;;;5041032;28;20630;-78
2020/12/16 08:22:39;;;;;;;9.27;5.85;;;;;;;;;;5019975;28;20213;-78
2020/12/16 08:25:15;;;;;;;5.95;4.57;;;;;;;;;;5043352;28;20245;-78
2020/12/16 08:27:45;;;;;;;8.90;5.35;;;;;;;;;;5025569;28;20189;-78
2020/12/16 08:30:12;;;;;;;8.20;5.03;;;;;;;;;;5042269;28;20173;-77
2020/12/16 08:32:47;;;;;;;6.07;5.00;;;;;;;;;;5022620;28;20193;-77
2020/12/16 08:35:17;;;;;;;6.72;5.20;;;;;;;;;;5019822;28;20193;-78
2020/12/16 08:37:46;;;;;;;6.28;4.60;;;;;;;;;;5021396;28;20181;-78
2020/12/16 08:40:13;;;;;;;6.88;5.15;;;;;;;;;;5025218;28;20178;-78
2020/12/16 08:42:39;;;;;;;12.80;7.75;;;;;;;;;;5035260;28;20687;-78
2020/12/16 08:45:06;;;;;;;7.53;5.30;;;;;;;;;;5033810;28;20267;-79
2020/12/16 08:47:32;;;;;;;4.97;4.40;;;;;;;;;;5032471;28;20471;-79
2020/12/16 08:49:58;;;;;;;7.25;5.47;;;;;;;;;;5024555;28;20197;-79
2020/12/16 08:52:24;;;;;;;6.30;4.45;;;;;;;;;;5043697;28;20190;-78
2020/12/16 08:54:50;;;;;;;8.30;5.93;;;;;;;;;;5025031;28;20170;-78
2020/12/16 08:57:20;;;;;;;5.97;4.82;;;;;;;;;;5041330;28;20178;-78
2020/12/16 08:59:46;;;;;;;12.02;4.20;;;;;;;;;;5025065;28;20190;-78
2020/12/16 09:02:12;;;;;;;7.93;4.90;;;;;;;;;;5023594;28;20196;-77
2020/12/16 09:04:42;;;;;;;7.90;4.78;;;;;;;;;;5023052;28;20209;-78
2020/12/16 09:07:15;;;;;;;4.57;4.18;;;;;;;;;;5040442;28;20186;-78
2020/12/16 09:09:53;;;;;;;5.35;4.30;;;;;;;;;;5024060;28;20388;-78
2020/12/16 09:12:20;;;;;;;6.43;5.15;;;;;;;;;;5035695;28;20192;-77
2020/12/16 09:15:02;;;;;;;6.35;4.70;;;;;;;;;;5025736;28;20240;-77
2020/12/16 09:17:29;;;;;;;7.65;5.25;;;;;;;;;;5024578;28;20184;-78
2020/12/16 09:19:56;;;;;;;4.35;3.50;;;;;;;;;;5041867;28;20264;-78
2020/12/16 09:22:23;;;;;;;6.45;4.30;;;;;;;;;;5036224;28;20178;-78
2020/12/16 09:24:49;;;;;;;4.35;3.58;;;;;;;;;;5025667;28;20182;-78
2020/12/16 09:27:15;;;;;;;8.25;4.70;;;;;;;;;;5021383;28;20186;-78
2020/12/16 09:29:45;;;;;;;5.03;4.50;;;;;;;;;;5024148;28;20208;-79
2020/12/16 09:32:11;;;;;;;6.75;4.78;;;;;;;;;;5018417;28;20285;-77
2020/12/16 09:34:38;;;;;;;6.80;4.83;;;;;;;;;;5041528;28;20262;-79
2020/12/16 09:37:14;;;;;;;7.00;4.70;;;;;;;;;;5024685;28;20440;-78
2020/12/16 09:39:40;;;;;;;5.93;4.13;;;;;;;;;;5034337;28;20271;-78
2020/12/16 09:42:11;;;;;;;4.25;3.85;;;;;;;;;;5037061;28;20192;-78
2020/12/16 09:44:37;;;;;;;4.47;4.07;;;;;;;;;;5024759;28;20225;-78
2020/12/16 09:47:19;;;;;;;6.68;4.15;;;;;;;;;;5022432;28;20225;-78
2020/12/16 09:50:01;;;;;;;4.53;4.07;;;;;;;;;;5051327;28;20201;-77
2020/12/16 09:52:34;;;;;;;5.47;3.55;;;;;;;;;;5037929;28;20212;-78
2020/12/16 09:55:17;;;;;;;6.47;3.83;;;;;;;;;;5036894;28;20176;-78
2020/12/16 09:57:44;;;;;;;5.03;3.60;;;;;;;;;;5038427;28;20193;-78
2020/12/16 10:00:10;;;;;;;4.55;4.00;;;;;;;;;;5043009;28;20202;-79
2020/12/16 10:02:37;;;;;;;6.22;4.65;;;;;;;;;;5037520;28;20186;-78
2020/12/16 10:05:04;;;;;;;5.00;3.80;;;;;;;;;;5019720;28;20186;-78
2020/12/16 10:07:33;;;;;;;4.07;3.67;;;;;;;;;;5041283;28;20182;-78
2020/12/16 10:10:00;;;;;;;3.80;2.95;;;;;;;;;;5036744;28;20170;-78
2020/12/16 10:12:26;;;;;;;4.22;3.83;;;;;;;;;;5023711;28;20281;-78
2020/12/16 10:14:52;;;;;;;5.40;3.75;;;;;;;;;;5019880;28;20189;-78
2020/12/16 10:17:24;;;;;;;4.05;3.63;;;;;;;;;;5022828;28;20182;-79
2020/12/16 10:19:50;;;;;;;3.40;2.95;;;;;;;;;;5022235;28;20197;-78
2020/12/16 10:22:16;;;;;;;3.97;3.58;;;;;;;;;;5024420;28;20589;-78
2020/12/16 10:24:42;;;;;;;4.60;3.80;;;;;;;;;;5030863;28;20201;-77
2020/12/16 10:27:08;;;;;;;4.45;3.63;;;;;;;;;;5042687;28;20540;-78
2020/12/16 10:29:34;;;;;;;4.45;3.90;;;;;;;;;;5024748;28;20201;-77
2020/12/16 10:32:00;;;;;;;3.90;3.00;;;;;;;;;;5042659;28;20204;-78
2020/12/16 10:34:26;;;;;;;6.57;3.92;;;;;;;;;;5041417;28;20178;-78
2020/12/16 10:36:53;;;;;;;4.73;3.83;;;;;;;;;;5021317;28;20253;-78
2020/12/16 10:39:20;;;;;;;5.45;4.40;;;;;;;;;;5019630;28;20440;-78
2020/12/16 10:41:58;;;;;;;5.30;4.70;;;;;;;;;;5019071;28;20186;-78
2020/12/16 10:44:27;;;;;;;5.00;3.90;;;;;;;;;;5040327;28;20189;-78
2020/12/16 10:46:54;;;;;;;4.38;3.65;;;;;;;;;;5030769;28;20240;-78
2020/12/16 10:49:24;;;;;;;4.53;3.50;;;;;;;;;;5035738;28;20229;-78
2020/12/16 10:51:50;;;;;;;6.97;5.40;;;;;;;;;;5025584;28;20166;-77
2020/12/16 10:54:16;;;;;;;8.05;5.95;;;;;;;;;;5018668;28;20186;-78
2020/12/16 10:56:42;;;;;;;5.72;4.57;;;;;;;;;;5035384;28;20759;-77
2020/12/16 10:59:08;;;;;;;6.20;4.93;;;;;;;;;;5022968;28;20202;-78
2020/12/16 11:01:50;;;;;;;4.45;3.80;;;;;;;;;;4981281;28;20463;-77
2020/12/16 11:04:16;;;;;;;5.30;4.50;;;;;;;;;;4980354;28;20269;-78
2020/12/16 11:06:46;;;;;;;5.05;4.55;;;;;;;;;;4976240;28;20190;-78
2020/12/16 11:09:12;;;;;;;6.05;4.90;;;;;;;;;;4975244;28;20208;-77
2020/12/16 11:11:45;;;;;;;6.93;5.07;;;;;;;;;;4975241;28;20215;-78
2020/12/16 11:14:11;;;;;;;6.03;5.15;;;;;;;;;;4979315;28;20323;-78
2020/12/16 11:16:37;;;;;;;7.65;5.00;;;;;;;;;;4969321;28;20229;-78
2020/12/16 11:19:04;;;;;;;5.80;5.20;;;;;;;;;;4980989;28;20273;-78
2020/12/16 11:21:36;;;;;;;7.30;5.20;;;;;;;;;;4965302;28;20172;-78
2020/12/16 11:24:02;;;;;;;7.30;5.60;;;;;;;;;;4980999;28;20198;-78
2020/12/16 11:26:28;;;;;;;13.73;8.38;;;;;;;;;;4984262;28;20299;-78
2020/12/16 11:28:54;;;;;;;9.68;5.85;;;;;;;;;;4983466;28;20208;-77
2020/12/16 11:31:20;;;;;;;8.43;5.50;;;;;;;;;;4982086;28;20184;-78
2020/12/16 11:33:46;;;;;;;8.53;5.80;;;;;;;;;;4981814;28;20633;-78
2020/12/16 11:36:12;;;;;;;6.90;5.50;;;;;;;;;;4978927;28;20471;-78
2020/12/16 11:38:38;;;;;;;6.90;4.90;;;;;;;;;;4999245;28;20507;-78
2020/12/16 11:41:05;;;;;;;9.45;7.05;;;;;;;;;;5020038;28;20463;-78
2020/12/16 11:43:31;;;;;;;7.10;5.20;;;;;;;;;;5023032;28;20197;-78
2020/12/16 11:45:57;;;;;;;8.15;5.07;;;;;;;;;;5035690;28;20188;-78
2020/12/16 11:48:23;;;;;;;7.25;6.43;;;;;;;;;;5022590;28;20201;-78
2020/12/16 11:50:49;;;;;;;7.30;5.20;;;;;;;;;;5026405;28;20189;-78
2020/12/16 11:53:15;;;;;;;7.05;4.80;;;;;;;;;;5039481;28;20183;-78
2020/12/16 11:55:41;;;;;;;6.85;5.28;;;;;;;;;;5028525;28;20178;-78
2020/12/16 11:58:07;;;;;;;6.13;5.03;;;;;;;;;;5026587;28;20212;-77
2020/12/16 12:00:33;;;;;;;9.33;6.40;;;;;;;;;;5026620;28;20428;-78
2020/12/16 12:02:59;;;;;;;9.50;7.50;;;;;;;;;;5041866;28;20531;-78
2020/12/16 12:05:25;;;;;;;8.03;7.23;;;;;;;;;;5042177;28;20248;-78
2020/12/16 12:07:51;;;;;;;7.93;7.00;;;;;;;;;;5042955;28;20468;-78
2020/12/16 12:10:17;;;;;;;7.43;6.70;;;;;;;;;;5042018;28;20190;-78
2020/12/16 12:12:43;;;;;;;8.50;6.47;;;;;;;;;;5040489;28;20232;-78
2020/12/16 12:15:11;;;;;;;6.57;5.88;;;;;;;;;;5040745;28;20440;-77
2020/12/16 12:17:37;;;;;;;7.00;5.63;;;;;;;;;;5039175;28;20174;-78
2020/12/16 12:20:03;;;;;;;6.38;5.30;;;;;;;;;;5024965;28;20188;-78
2020/12/16 12:22:29;;;;;;;5.05;4.55;;;;;;;;;;5041723;28;20190;-79
2020/12/16 12:24:55;;;;;;;4.93;4.30;;;;;;;;;;5044514;28;20220;-78
2020/12/16 12:27:21;;;;;;;5.70;4.70;;;;;;;;;;5039037;28;20436;-78
2020/12/16 12:29:47;;;;;;;5.20;4.70;;;;;;;;;;5037577;28;20199;-78
2020/12/16 12:32:14;;;;;;;5.13;4.20;;;;;;;;;;5021144;28;20211;-78
2020/12/16 12:34:40;;;;;;;5.68;4.60;;;;;;;;;;5035196;28;20185;-79
2020/12/16 12:37:06;;;;;;;5.78;5.18;;;;;;;;;;5036210;28;20204;-78
2020/12/16 12:39:32;;;;;;;4.50;4.10;;;;;;;;;;5038625;28;20216;-78
2020/12/16 12:41:58;;;;;;;6.32;4.45;;;;;;;;;;5038182;28;20201;-78
2020/12/16 12:44:24;;;;;;;4.07;3.67;;;;;;;;;;5043564;28;20178;-78
2020/12/16 12:46:50;;;;;;;5.17;3.70;;;;;;;;;;5023249;28;21031;-78
2020/12/16 12:49:17;;;;;;;3.35;3.00;;;;;;;;;;5041792;28;20472;-78
2020/12/16 12:51:49;;;;;;;3.83;3.53;;;;;;;;;;5027489;28;20174;-78
2020/12/16 12:54:15;;;;;;;4.32;3.92;;;;;;;;;;5037896;28;20174;-79
2020/12/16 12:56:41;;;;;;;4.57;3.10;;;;;;;;;;5025492;28;20236;-78
2020/12/16 12:59:06;;;;;;;4.15;2.97;;;;;;;;;;5043181;28;20452;-77
2020/12/16 13:01:33;;;;;;;4.33;3.30;;;;;;;;;;5042174;28;20186;-78
2020/12/16 13:03:58;;;;;;;4.00;3.60;;;;;;;;;;5037608;28;20416;-76
2020/12/16 13:06:24;;;;;;;3.53;3.13;;;;;;;;;;5019827;28;20170;-76
2020/12/16 13:08:54;;;;;;;3.57;3.27;;;;;;;;;;5042322;28;20507;-77
2020/12/16 13:11:19;;;;;;;4.18;3.13;;;;;;;;;;5041188;28;20517;-77
2020/12/16 13:13:45;;;;;;;2.60;2.40;;;;;;;;;;5022881;28;20222;-77
2020/12/16 13:16:12;;;;;;;3.30;2.95;;;;;;;;;;5023558;28;20175;-76
2020/12/16 13:18:38;;;;;;;3.35;3.05;;;;;;;;;;5039173;28;20185;-76
2020/12/16 13:21:04;;;;;;;3.25;2.95;;;;;;;;;;5038082;28;20185;-77
2020/12/16 13:23:30;;;;;;;3.00;2.80;;;;;;;;;;5034922;28;20559;-77
2020/12/16 13:25:56;;;;;;;3.70;3.30;;;;;;;;;;5038863;28;20194;-77
2020/12/16 13:28:22;;;;;;;2.90;2.50;;;;;;;;;;5027564;28;20468;-78
2020/12/16 13:30:48;;;;;;;6.25;2.90;;;;;;;;;;5022879;28;20170;-77
2020/12/16 13:33:14;;;;;;;3.63;3.30;;;;;;;;;;5024296;28;20185;-77
2020/12/16 13:35:40;;;;;;;3.30;3.00;;;;;;;;;;5032511;28;20186;-76
2020/12/16 13:38:06;;;;;;;2.63;2.43;;;;;;;;;;5038303;28;20659;-77
2020/12/16 13:40:32;;;;;;;3.10;2.83;;;;;;;;;;5042055;28;20455;-76
2020/12/16 13:42:58;;;;;;;3.40;3.00;;;;;;;;;;5039703;28;20532;-76
2020/12/16 13:45:24;;;;;;;4.20;2.88;;;;;;;;;;5038513;28;20203;-76
2020/12/16 13:47:50;;;;;;;6.03;3.43;;;;;;;;;;5040769;28;20244;-76
2020/12/16 13:50:16;;;;;;;3.50;3.20;;;;;;;;;;5024826;28;20467;-76
2020/12/16 13:52:42;;;;;;;5.30;3.85;;;;;;;;;;5043336;28;20174;-76
2020/12/16 13:55:10;;;;;;;5.30;3.97;;;;;;;;;;5023496;28;20252;-76
2020/12/16 13:57:36;;;;;;;4.35;3.40;;;;;;;;;;5042825;28;20428;-76
2020/12/16 14:00:03;;;;;;;4.28;3.83;;;;;;;;;;5020079;28;20182;-76
2020/12/16 14:02:29;;;;;;;3.63;3.30;;;;;;;;;;5021173;28;20279;-76
2020/12/16 14:04:55;;;;;;;5.00;4.50;;;;;;;;;;5041556;28;20194;-76
2020/12/16 14:07:21;;;;;;;4.65;3.97;;;;;;;;;;5025201;28;20435;-77
2020/12/16 14:09:47;;;;;;;4.27;3.87;;;;;;;;;;5026142;28;20213;-76
2020/12/16 14:12:16;;;;;;;7.38;4.43;;;;;;;;;;5024480;28;20436;-76
2020/12/16 14:14:41;;;;;;;4.97;4.47;;;;;;;;;;5041063;28;20647;-76
2020/12/16 14:17:07;;;;;;;4.67;3.97;;;;;;;;;;5042090;28;20266;-76
2020/12/16 14:19:34;;;;;;;4.73;3.93;;;;;;;;;;5041111;28;20447;-76
2020/12/16 14:22:00;;;;;;;4.47;3.95;;;;;;;;;;5038101;28;20444;-77
2020/12/16 14:24:26;;;;;;;4.07;3.75;;;;;;;;;;5037974;28;20174;-76
2020/12/16 14:26:54;;;;;;;5.32;4.82;;;;;;;;;;5036668;28;20213;-76
2020/12/16 14:29:20;;;;;;;4.50;3.65;;;;;;;;;;5021701;28;20217;-76
2020/12/16 14:31:50;;;;;;;7.55;5.05;;;;;;;;;;5023956;28;20248;-77
2020/12/16 14:34:16;;;;;;;4.53;4.13;;;;;;;;;;5045746;28;20228;-77
2020/12/16 14:36:51;;;;;;;5.10;3.60;;;;;;;;;;5041776;28;20170;-77
2020/12/16 14:39:18;;;;;;;7.22;3.92;;;;;;;;;;5024465;28;20195;-76
2020/12/16 14:41:44;;;;;;;4.28;3.58;;;;;;;;;;5019181;28;20186;-77